Himki, Russia
Current Conditions -  °F | °C
As of 11:00 AM on Monday 24 Nov 2014 (Local Time) from UUEE Reporting Station
Haze Haze  
Wind Chill: 23°   Ceiling: 900
Heat Index: 28°   Visibility: 3mi
Dew Point: 25°   Wind: 4mph
Humidity: 86%   Direction: 110°ESE
Pressure: 30.68"   Gusts: NA
Location:  55.89°N, 37.44°E
Report Text: UUEE 240800Z 11002MPS 5000 BR OVC009 M02/M04 Q1039 0712005757120057 TEMPO -FZDZ
Loading
Personal Weather Stations






























Interactive Weather Map New forecast layout! Learn more

10-Day Weather Forecast

Advertisements
Track Severe Weather on mobile